Time;durP1;ratioP1;P1;durP2;ratioP2;P2;SDS_P1;SDS_P2;PMS_P1;PMS_P2;Temp;Humidity;BMP_temperature;BMP_pressure;BME280_temperature;BME280_humidity;BME280_pressure;Samples;Min_cycle;Max_cycle;Signal;HPM_P1;HPM_P2
2021/08/21 00:00:26;;;;;;;3.65;2.50;;;;;;;;;;4990665;28;20050;-61
2021/08/21 00:02:56;;;;;;;4.60;3.13;;;;;;;;;;4991314;28;20498;-59
2021/08/21 00:05:24;;;;;;;6.95;2.92;;;;;;;;;;4985926;28;20057;-60
2021/08/21 00:07:53;;;;;;;5.55;2.90;;;;;;;;;;4991334;28;20050;-60
2021/08/21 00:10:22;;;;;;;6.22;3.15;;;;;;;;;;4991513;28;20120;-60
2021/08/21 00:12:50;;;;;;;3.67;2.70;;;;;;;;;;4989928;28;20519;-60
2021/08/21 00:15:19;;;;;;;5.30;3.00;;;;;;;;;;4990482;28;20050;-60
2021/08/21 00:17:48;;;;;;;5.38;2.63;;;;;;;;;;4990882;28;20068;-60
2021/08/21 00:20:19;;;;;;;4.55;2.78;;;;;;;;;;4991050;28;20047;-60
2021/08/21 00:22:47;;;;;;;6.38;3.08;;;;;;;;;;4990518;28;20058;-60
2021/08/21 00:25:16;;;;;;;4.28;2.90;;;;;;;;;;4989614;28;20061;-60
2021/08/21 00:27:44;;;;;;;6.47;3.17;;;;;;;;;;4991211;28;20077;-61
2021/08/21 00:30:13;;;;;;;4.70;3.03;;;;;;;;;;4989373;28;20051;-60
2021/08/21 00:32:42;;;;;;;7.63;3.20;;;;;;;;;;4987108;28;20057;-61
2021/08/21 00:35:11;;;;;;;4.32;2.78;;;;;;;;;;4989450;28;20051;-60
2021/08/21 00:37:41;;;;;;;5.32;3.05;;;;;;;;;;4990996;28;20049;-61
2021/08/21 00:40:09;;;;;;;5.55;3.22;;;;;;;;;;4991607;28;20050;-60
2021/08/21 00:42:37;;;;;;;5.63;3.13;;;;;;;;;;4989989;28;20046;-60
2021/08/21 00:45:06;;;;;;;5.15;2.70;;;;;;;;;;4988582;28;20418;-61
2021/08/21 00:47:34;;;;;;;6.65;3.10;;;;;;;;;;4991209;28;20057;-60
2021/08/21 00:50:03;;;;;;;5.55;3.53;;;;;;;;;;4990179;28;20068;-60
2021/08/21 00:52:34;;;;;;;9.00;3.58;;;;;;;;;;4986877;28;20042;-60
2021/08/21 00:55:04;;;;;;;5.20;3.08;;;;;;;;;;4987236;28;20141;-59
2021/08/21 00:57:33;;;;;;;6.65;3.10;;;;;;;;;;4979848;28;20042;-60
2021/08/21 01:00:01;;;;;;;6.53;3.00;;;;;;;;;;4989802;28;20046;-60
2021/08/21 01:02:31;;;;;;;4.72;2.58;;;;;;;;;;5018867;23;20058;-64
2021/08/21 01:05:00;;;;;;;5.72;3.20;;;;;;;;;;5007761;28;20581;-64
2021/08/21 01:07:29;;;;;;;6.53;3.40;;;;;;;;;;5009164;28;20065;-64
2021/08/21 01:10:00;;;;;;;5.50;3.20;;;;;;;;;;5010567;28;20056;-64
2021/08/21 01:12:30;;;;;;;6.25;3.88;;;;;;;;;;5008893;28;20726;-63
2021/08/21 01:14:58;;;;;;;7.97;3.50;;;;;;;;;;5006540;28;20054;-64
2021/08/21 01:17:27;;;;;;;5.07;2.92;;;;;;;;;;5009915;28;20052;-63
2021/08/21 01:19:55;;;;;;;6.03;2.97;;;;;;;;;;5010030;28;20056;-63
2021/08/21 01:22:25;;;;;;;5.32;3.35;;;;;;;;;;5007449;28;20425;-64
2021/08/21 01:24:54;;;;;;;5.30;3.05;;;;;;;;;;5007453;28;20108;-64
2021/08/21 01:27:25;;;;;;;4.53;3.08;;;;;;;;;;5001359;28;20062;-65
2021/08/21 01:29:53;;;;;;;5.35;2.90;;;;;;;;;;5009671;28;20046;-64
2021/08/21 01:32:22;;;;;;;5.68;3.28;;;;;;;;;;5007880;28;20050;-63
2021/08/21 01:34:50;;;;;;;4.47;3.10;;;;;;;;;;5007304;28;20143;-64
2021/08/21 01:37:19;;;;;;;6.40;2.95;;;;;;;;;;5007664;28;20064;-64
2021/08/21 01:39:47;;;;;;;5.10;3.17;;;;;;;;;;5008160;28;20050;-63
2021/08/21 01:42:16;;;;;;;5.55;2.88;;;;;;;;;;5008716;28;20360;-63
2021/08/21 01:44:46;;;;;;;8.95;2.80;;;;;;;;;;5007758;28;20395;-64
2021/08/21 01:47:14;;;;;;;6.75;3.05;;;;;;;;;;5009058;28;20046;-64
2021/08/21 01:49:42;;;;;;;5.45;3.28;;;;;;;;;;5008215;28;20062;-63
2021/08/21 01:52:11;;;;;;;8.68;3.70;;;;;;;;;;5009394;28;20046;-63
2021/08/21 01:54:39;;;;;;;5.88;3.00;;;;;;;;;;5007692;28;20056;-64
2021/08/21 01:57:07;;;;;;;5.53;3.17;;;;;;;;;;5006274;28;20050;-64
2021/08/21 01:59:36;;;;;;;5.68;3.33;;;;;;;;;;5008614;28;20056;-63
2021/08/21 02:02:06;;;;;;;6.07;3.53;;;;;;;;;;5007985;28;20126;-64
2021/08/21 02:04:34;;;;;;;6.68;3.35;;;;;;;;;;5000208;28;20104;-64
2021/08/21 02:07:03;;;;;;;5.00;2.80;;;;;;;;;;5008672;28;20054;-63
2021/08/21 02:09:31;;;;;;;6.10;3.58;;;;;;;;;;5008369;28;20496;-64
2021/08/21 02:11:59;;;;;;;5.70;3.30;;;;;;;;;;5008582;28;20137;-63
2021/08/21 02:14:28;;;;;;;6.38;3.35;;;;;;;;;;5009291;28;20053;-63
2021/08/21 02:16:57;;;;;;;7.13;4.45;;;;;;;;;;5010019;28;20049;-63
2021/08/21 02:19:27;;;;;;;6.53;4.03;;;;;;;;;;5009092;28;20060;-64
2021/08/21 02:21:56;;;;;;;8.77;3.88;;;;;;;;;;5008311;28;20528;-63
2021/08/21 02:24:25;;;;;;;6.35;3.30;;;;;;;;;;5008113;28;20052;-64
2021/08/21 02:26:54;;;;;;;6.25;3.55;;;;;;;;;;5007871;28;20458;-64
2021/08/21 02:29:22;;;;;;;6.32;3.47;;;;;;;;;;5008615;28;20409;-64
2021/08/21 02:31:50;;;;;;;5.55;3.08;;;;;;;;;;5008813;28;20041;-64
2021/08/21 02:34:18;;;;;;;9.27;3.22;;;;;;;;;;5006990;28;20052;-64
2021/08/21 02:36:48;;;;;;;7.35;3.47;;;;;;;;;;5007733;28;20050;-63
2021/08/21 02:39:16;;;;;;;5.50;3.00;;;;;;;;;;5008412;28;20038;-65
2021/08/21 02:41:44;;;;;;;9.20;3.83;;;;;;;;;;5007283;28;20053;-64
2021/08/21 02:44:12;;;;;;;9.27;3.88;;;;;;;;;;5007135;28;20046;-64
2021/08/21 02:46:41;;;;;;;7.15;3.90;;;;;;;;;;5007579;28;20064;-64
2021/08/21 02:49:09;;;;;;;7.63;3.63;;;;;;;;;;5007439;28;20050;-63
2021/08/21 02:51:37;;;;;;;7.57;3.35;;;;;;;;;;5008383;28;20041;-64
2021/08/21 02:54:07;;;;;;;6.35;3.45;;;;;;;;;;5007304;28;20524;-63
2021/08/21 02:56:35;;;;;;;6.78;3.40;;;;;;;;;;5000470;28;20046;-64
2021/08/21 02:59:03;;;;;;;7.13;3.55;;;;;;;;;;5008008;28;20046;-63
2021/08/21 03:01:31;;;;;;;5.18;2.72;;;;;;;;;;5002811;28;20513;-64
2021/08/21 03:04:00;;;;;;;6.68;3.60;;;;;;;;;;5002524;28;20050;-64
2021/08/21 03:06:28;;;;;;;9.57;3.90;;;;;;;;;;5005052;28;20064;-64
2021/08/21 03:08:56;;;;;;;6.68;3.53;;;;;;;;;;5007603;28;20052;-63
2021/08/21 03:11:26;;;;;;;5.88;3.22;;;;;;;;;;5007579;28;20049;-63
2021/08/21 03:13:54;;;;;;;6.20;3.60;;;;;;;;;;5006581;28;20056;-64
2021/08/21 03:16:22;;;;;;;5.68;3.05;;;;;;;;;;5010343;28;20591;-64
2021/08/21 03:18:50;;;;;;;6.43;3.53;;;;;;;;;;5011236;28;20089;-64
2021/08/21 03:21:18;;;;;;;5.13;3.42;;;;;;;;;;5012586;28;20049;-63
2021/08/21 03:23:47;;;;;;;6.18;3.67;;;;;;;;;;5010776;28;20092;-64
2021/08/21 03:26:15;;;;;;;8.10;3.30;;;;;;;;;;4937765;28;20454;-64
2021/08/21 03:28:44;;;;;;;5.05;3.50;;;;;;;;;;343100;28;10022492;-64
2021/08/21 03:31:13;;;;;;;5.65;3.30;;;;;;;;;;5010393;28;20050;-64
2021/08/21 03:33:41;;;;;;;5.13;3.63;;;;;;;;;;5010691;28;20045;-64
2021/08/21 03:36:09;;;;;;;7.15;3.53;;;;;;;;;;5011406;28;20046;-64
2021/08/21 03:38:37;;;;;;;7.00;3.47;;;;;;;;;;5010568;28;20529;-64
2021/08/21 03:41:05;;;;;;;6.15;3.53;;;;;;;;;;5011929;28;20046;-64
2021/08/21 03:43:34;;;;;;;4.65;3.22;;;;;;;;;;5009952;28;20113;-64
2021/08/21 03:46:03;;;;;;;6.32;3.42;;;;;;;;;;5011853;28;20038;-64
2021/08/21 03:48:32;;;;;;;5.07;3.25;;;;;;;;;;5007037;28;20050;-64
2021/08/21 03:51:00;;;;;;;5.40;2.97;;;;;;;;;;4994595;28;20413;-66
2021/08/21 03:53:28;;;;;;;4.47;3.30;;;;;;;;;;5008664;28;20056;-66
2021/08/21 03:55:56;;;;;;;7.28;3.47;;;;;;;;;;5008705;28;20052;-66
2021/08/21 03:58:24;;;;;;;6.35;3.53;;;;;;;;;;5005562;28;20230;-66
2021/08/21 04:00:52;;;;;;;6.97;4.68;;;;;;;;;;5011892;28;20058;-66
2021/08/21 04:03:22;;;;;;;5.05;3.40;;;;;;;;;;5008216;28;20058;-66
2021/08/21 04:05:50;;;;;;;5.35;3.03;;;;;;;;;;4995563;28;20133;-66
2021/08/21 04:08:19;;;;;;;5.85;3.70;;;;;;;;;;5009821;28;20053;-66
2021/08/21 04:10:47;;;;;;;7.75;3.53;;;;;;;;;;5010783;28;20502;-66
2021/08/21 04:13:15;;;;;;;6.28;3.35;;;;;;;;;;5007839;28;20049;-66
2021/08/21 04:15:43;;;;;;;7.15;3.35;;;;;;;;;;4998166;28;20402;-66
2021/08/21 04:18:12;;;;;;;7.43;3.42;;;;;;;;;;5009918;28;20053;-66
2021/08/21 04:20:41;;;;;;;5.40;3.58;;;;;;;;;;5002405;28;20045;-67
2021/08/21 04:23:09;;;;;;;4.78;3.08;;;;;;;;;;5010765;28;20052;-65
2021/08/21 04:25:37;;;;;;;5.78;2.95;;;;;;;;;;5009847;28;20053;-67
2021/08/21 04:28:06;;;;;;;6.32;3.47;;;;;;;;;;5010006;28;20050;-66
2021/08/21 04:30:34;;;;;;;6.78;3.17;;;;;;;;;;5012325;28;20042;-66
2021/08/21 04:33:02;;;;;;;4.78;3.17;;;;;;;;;;5009787;28;20046;-67
2021/08/21 04:35:30;;;;;;;7.57;3.60;;;;;;;;;;5010149;28;20409;-66
2021/08/21 04:38:01;;;;;;;9.40;3.97;;;;;;;;;;5009897;28;20410;-66
2021/08/21 04:40:29;;;;;;;6.25;3.25;;;;;;;;;;5009955;28;20141;-66
2021/08/21 04:42:58;;;;;;;6.47;3.35;;;;;;;;;;5007430;28;20137;-65
2021/08/21 04:45:26;;;;;;;6.97;3.03;;;;;;;;;;5008963;28;20410;-65
2021/08/21 04:47:54;;;;;;;5.90;3.20;;;;;;;;;;5010233;28;20305;-65
2021/08/21 04:50:23;;;;;;;4.88;3.25;;;;;;;;;;5009415;28;20065;-66
2021/08/21 04:52:51;;;;;;;5.00;3.00;;;;;;;;;;5009812;28;20050;-66
2021/08/21 04:55:21;;;;;;;5.93;3.22;;;;;;;;;;5007487;28;20056;-66
2021/08/21 04:57:50;;;;;;;6.53;3.60;;;;;;;;;;5005423;28;20053;-66
2021/08/21 05:00:19;;;;;;;8.02;3.42;;;;;;;;;;5009802;28;20273;-66
2021/08/21 05:02:47;;;;;;;5.90;3.22;;;;;;;;;;5009738;28;20065;-65
2021/08/21 05:05:15;;;;;;;4.40;3.00;;;;;;;;;;5009101;28;20069;-65
2021/08/21 05:07:45;;;;;;;6.28;3.15;;;;;;;;;;5007422;28;20058;-66
2021/08/21 05:10:14;;;;;;;4.97;3.55;;;;;;;;;;5008543;28;20137;-65
2021/08/21 05:12:45;;;;;;;4.88;3.22;;;;;;;;;;5004273;28;20038;-65
2021/08/21 05:15:13;;;;;;;6.72;3.08;;;;;;;;;;5005826;28;20056;-66
2021/08/21 05:17:42;;;;;;;6.03;3.13;;;;;;;;;;5009210;28;20049;-66
2021/08/21 05:20:15;;;;;;;5.93;3.10;;;;;;;;;;5008380;28;20037;-66
2021/08/21 05:23:03;;;;;;;7.68;3.33;;;;;;;;;;5008970;28;20056;-66
2021/08/21 05:25:31;;;;;;;6.00;3.35;;;;;;;;;;5005489;28;20068;-66
2021/08/21 05:28:00;;;;;;;8.20;3.28;;;;;;;;;;5008851;28;20062;-65
2021/08/21 05:30:30;;;;;;;6.80;3.45;;;;;;;;;;5008533;28;20060;-65
2021/08/21 05:32:58;;;;;;;5.60;3.17;;;;;;;;;;5009925;28;20060;-65
2021/08/21 05:35:27;;;;;;;5.82;3.22;;;;;;;;;;5007832;28;20068;-66
2021/08/21 05:37:55;;;;;;;6.50;3.20;;;;;;;;;;5004966;28;20557;-65
2021/08/21 05:40:23;;;;;;;3.45;2.55;;;;;;;;;;5008041;28;20323;-66
2021/08/21 05:42:51;;;;;;;5.43;3.50;;;;;;;;;;5009427;28;20062;-65
2021/08/21 05:45:21;;;;;;;6.60;3.45;;;;;;;;;;5007551;28;20525;-66
2021/08/21 05:47:50;;;;;;;4.63;2.95;;;;;;;;;;4999962;28;20530;-66
2021/08/21 05:50:19;;;;;;;4.30;3.03;;;;;;;;;;5008078;28;20041;-66
2021/08/21 05:52:47;;;;;;;6.57;3.30;;;;;;;;;;5007888;28;20065;-66
2021/08/21 05:55:15;;;;;;;5.00;3.28;;;;;;;;;;5007305;28;20054;-66
2021/08/21 05:57:43;;;;;;;6.10;3.42;;;;;;;;;;5007255;28;20068;-67
2021/08/21 06:00:12;;;;;;;5.60;3.15;;;;;;;;;;5005523;28;20569;-65
2021/08/21 06:02:42;;;;;;;5.72;3.70;;;;;;;;;;5005581;28;20060;-65
2021/08/21 06:05:11;;;;;;;5.50;3.20;;;;;;;;;;5007122;28;20114;-66
2021/08/21 06:07:40;;;;;;;5.78;3.38;;;;;;;;;;4995843;28;20076;-66
2021/08/21 06:10:09;;;;;;;6.63;3.63;;;;;;;;;;5006916;28;20046;-66
2021/08/21 06:12:37;;;;;;;6.53;3.58;;;;;;;;;;5005805;28;20046;-66
2021/08/21 06:15:06;;;;;;;8.63;4.43;;;;;;;;;;5006094;28;20085;-66
2021/08/21 06:17:34;;;;;;;6.72;3.40;;;;;;;;;;5001526;28;20516;-67
2021/08/21 06:20:04;;;;;;;6.38;3.28;;;;;;;;;;5004046;28;20052;-67
2021/08/21 06:22:32;;;;;;;6.45;3.78;;;;;;;;;;4999170;28;20419;-66
2021/08/21 06:25:01;;;;;;;6.07;3.72;;;;;;;;;;5001115;28;20054;-66
2021/08/21 06:27:29;;;;;;;8.43;4.03;;;;;;;;;;5001423;28;20476;-66
2021/08/21 06:29:57;;;;;;;6.40;3.97;;;;;;;;;;5003333;28;20046;-66
2021/08/21 06:32:25;;;;;;;10.75;5.07;;;;;;;;;;5000770;28;20687;-66
2021/08/21 06:34:54;;;;;;;9.80;4.70;;;;;;;;;;4994550;28;20531;-66
2021/08/21 06:37:23;;;;;;;8.13;4.90;;;;;;;;;;5001279;28;20062;-66
2021/08/21 06:39:51;;;;;;;11.57;5.43;;;;;;;;;;4998927;28;20435;-66
2021/08/21 06:42:19;;;;;;;13.02;4.93;;;;;;;;;;4997328;28;20054;-66
2021/08/21 06:44:48;;;;;;;9.35;5.07;;;;;;;;;;4999332;28;20054;-66
2021/08/21 06:47:17;;;;;;;9.23;5.05;;;;;;;;;;4999024;28;20045;-67
2021/08/21 06:49:45;;;;;;;7.95;4.60;;;;;;;;;;5005281;28;20049;-66
2021/08/21 06:52:13;;;;;;;12.00;6.05;;;;;;;;;;5000841;28;20050;-67
2021/08/21 06:54:43;;;;;;;8.25;5.03;;;;;;;;;;5004955;28;20529;-66
2021/08/21 06:57:11;;;;;;;11.73;5.82;;;;;;;;;;5004751;28;20050;-66
2021/08/21 06:59:39;;;;;;;9.27;5.30;;;;;;;;;;5005979;28;20041;-66
2021/08/21 07:02:08;;;;;;;10.80;5.80;;;;;;;;;;5005877;28;20060;-67
2021/08/21 07:04:36;;;;;;;8.50;5.18;;;;;;;;;;5003317;28;20594;-66
2021/08/21 07:07:05;;;;;;;9.68;6.15;;;;;;;;;;5005101;28;20696;-66
2021/08/21 07:09:33;;;;;;;10.18;5.13;;;;;;;;;;4995817;28;20161;-67
2021/08/21 07:12:03;;;;;;;9.07;5.47;;;;;;;;;;5000975;28;20049;-66
2021/08/21 07:14:31;;;;;;;8.50;4.75;;;;;;;;;;5001433;28;20054;-66
2021/08/21 07:17:00;;;;;;;9.50;5.20;;;;;;;;;;5003043;28;20058;-67
2021/08/21 07:19:28;;;;;;;9.10;5.25;;;;;;;;;;5003927;28;20155;-66
2021/08/21 07:21:56;;;;;;;10.05;5.78;;;;;;;;;;5003287;28;20049;-67
2021/08/21 07:24:25;;;;;;;10.07;6.07;;;;;;;;;;4997412;28;20065;-67
2021/08/21 07:26:53;;;;;;;11.02;5.47;;;;;;;;;;5005731;28;20041;-66
2021/08/21 07:29:23;;;;;;;9.95;5.65;;;;;;;;;;5006597;28;20133;-66
2021/08/21 07:31:51;;;;;;;10.02;5.32;;;;;;;;;;4999149;28;20054;-66
2021/08/21 07:34:20;;;;;;;10.00;6.10;;;;;;;;;;5005135;28;20046;-66
2021/08/21 07:36:48;;;;;;;11.15;5.55;;;;;;;;;;5001791;28;20052;-66
2021/08/21 07:39:16;;;;;;;11.07;5.60;;;;;;;;;;5002177;28;20060;-66
2021/08/21 07:41:45;;;;;;;10.63;6.07;;;;;;;;;;5005930;28;20417;-67
2021/08/21 07:44:13;;;;;;;9.77;4.97;;;;;;;;;;5005086;28;20053;-66
2021/08/21 07:46:43;;;;;;;8.77;5.22;;;;;;;;;;5006674;28;20060;-66
2021/08/21 07:49:11;;;;;;;11.85;5.72;;;;;;;;;;4997746;28;20056;-66
2021/08/21 07:51:39;;;;;;;9.68;5.30;;;;;;;;;;5000049;28;20053;-66
2021/08/21 07:54:07;;;;;;;14.05;4.82;;;;;;;;;;5003086;28;20493;-70
2021/08/21 07:56:35;;;;;;;8.32;4.32;;;;;;;;;;5007115;28;20512;-71
2021/08/21 07:59:04;;;;;;;8.60;5.10;;;;;;;;;;5001985;28;20133;-71
2021/08/21 08:01:32;;;;;;;8.05;4.93;;;;;;;;;;5006750;28;20041;-71
2021/08/21 08:04:02;;;;;;;7.15;4.35;;;;;;;;;;5006901;28;20054;-74
2021/08/21 08:06:30;;;;;;;7.00;4.40;;;;;;;;;;5003543;28;20506;-73
2021/08/21 08:08:58;;;;;;;8.75;5.07;;;;;;;;;;4991065;28;20141;-73
2021/08/21 08:11:27;;;;;;;6.65;4.18;;;;;;;;;;5003188;28;20398;-73
2021/08/21 08:13:55;;;;;;;9.32;4.35;;;;;;;;;;5010330;28;20050;-74
2021/08/21 08:16:23;;;;;;;7.70;3.75;;;;;;;;;;5008944;28;20045;-73
2021/08/21 08:18:51;;;;;;;5.32;3.72;;;;;;;;;;4994795;28;20054;-72
2021/08/21 08:21:22;;;;;;;6.63;4.13;;;;;;;;;;4993555;28;20052;-74
2021/08/21 08:23:52;;;;;;;7.47;4.18;;;;;;;;;;4999275;28;20065;-73
2021/08/21 08:26:20;;;;;;;6.22;4.05;;;;;;;;;;5006005;28;20141;-72
2021/08/21 08:28:48;;;;;;;7.72;3.92;;;;;;;;;;5005488;28;20054;-73
2021/08/21 08:31:17;;;;;;;7.30;4.40;;;;;;;;;;5001081;28;20051;-73
2021/08/21 08:33:45;;;;;;;6.13;4.07;;;;;;;;;;4991075;28;20049;-74
2021/08/21 08:36:13;;;;;;;8.90;4.45;;;;;;;;;;5009531;28;20490;-72
2021/08/21 08:38:43;;;;;;;7.20;4.22;;;;;;;;;;5009098;28;20052;-72
2021/08/21 08:41:11;;;;;;;6.65;3.95;;;;;;;;;;4995146;28;20141;-73
2021/08/21 08:43:42;;;;;;;7.90;4.43;;;;;;;;;;4994407;28;20042;-73
2021/08/21 08:46:10;;;;;;;7.47;3.88;;;;;;;;;;4996422;28;20156;-73
2021/08/21 08:48:39;;;;;;;6.80;4.05;;;;;;;;;;5002440;28;20046;-73
2021/08/21 08:51:08;;;;;;;8.02;4.13;;;;;;;;;;5005052;28;20093;-72
2021/08/21 08:53:36;;;;;;;6.50;3.65;;;;;;;;;;5005939;28;20061;-71
2021/08/21 08:56:06;;;;;;;7.22;4.28;;;;;;;;;;4992289;28;20697;-70
2021/08/21 08:58:34;;;;;;;6.88;4.05;;;;;;;;;;5000618;28;20050;-70
2021/08/21 09:01:03;;;;;;;8.98;3.88;;;;;;;;;;4996494;28;20506;-71
2021/08/21 09:03:32;;;;;;;8.15;4.18;;;;;;;;;;4993821;28;20058;-71
2021/08/21 09:06:01;;;;;;;6.10;3.70;;;;;;;;;;5005238;28;20144;-68
2021/08/21 09:08:30;;;;;;;8.13;4.53;;;;;;;;;;4999808;28;20128;-68
2021/08/21 09:10:59;;;;;;;6.55;3.85;;;;;;;;;;5004164;28;20176;-67
2021/08/21 09:13:31;;;;;;;7.90;3.72;;;;;;;;;;4994182;28;20045;-68
2021/08/21 09:16:02;;;;;;;6.25;3.78;;;;;;;;;;5002265;28;20050;-68
2021/08/21 09:18:31;;;;;;;6.63;3.78;;;;;;;;;;5002062;28;20124;-68
2021/08/21 09:21:14;;;;;;;6.13;4.07;;;;;;;;;;4996461;28;20212;-68
2021/08/21 09:23:44;;;;;;;5.82;3.65;;;;;;;;;;4998299;28;20050;-68
2021/08/21 09:26:14;;;;;;;6.63;4.07;;;;;;;;;;5002252;28;20160;-68
2021/08/21 09:28:44;;;;;;;7.07;3.88;;;;;;;;;;5004920;28;20046;-68
2021/08/21 09:31:13;;;;;;;5.85;3.65;;;;;;;;;;5001390;28;20057;-68
2021/08/21 09:33:42;;;;;;;6.63;3.80;;;;;;;;;;5000679;28;20061;-68
2021/08/21 09:36:14;;;;;;;5.03;3.38;;;;;;;;;;5004769;28;20046;-68
2021/08/21 09:38:42;;;;;;;7.18;3.60;;;;;;;;;;5001374;28;20089;-67
2021/08/21 09:41:11;;;;;;;6.32;3.05;;;;;;;;;;5006392;28;20062;-67
2021/08/21 09:43:40;;;;;;;5.18;3.28;;;;;;;;;;5004981;28;20042;-67
2021/08/21 09:46:15;;;;;;;4.72;3.60;;;;;;;;;;4999176;28;20054;-67
2021/08/21 09:49:03;;;;;;;7.18;3.58;;;;;;;;;;5003313;28;20046;-67
2021/08/21 09:51:32;;;;;;;5.90;4.00;;;;;;;;;;5001679;28;20050;-67
2021/08/21 09:54:01;;;;;;;5.20;3.53;;;;;;;;;;5003637;28;20048;-67
2021/08/21 09:56:34;;;;;;;5.82;3.65;;;;;;;;;;5006091;28;20050;-67
2021/08/21 09:59:02;;;;;;;7.80;3.63;;;;;;;;;;5004943;28;20053;-71
2021/08/21 10:01:32;;;;;;;6.65;3.50;;;;;;;;;;5000640;28;20048;-71
2021/08/21 10:04:01;;;;;;;5.07;3.20;;;;;;;;;;5002821;28;20046;-71
2021/08/21 10:06:30;;;;;;;3.97;3.35;;;;;;;;;;4992631;28;20050;-71
2021/08/21 10:09:02;;;;;;;5.80;3.50;;;;;;;;;;5002853;28;20050;-71
2021/08/21 10:11:30;;;;;;;5.32;3.17;;;;;;;;;;4997513;28;20137;-70
2021/08/21 10:13:59;;;;;;;4.68;3.20;;;;;;;;;;5001716;28;20134;-63
2021/08/21 10:16:27;;;;;;;6.18;3.50;;;;;;;;;;5001798;28;20061;-63
2021/08/21 10:18:57;;;;;;;5.88;3.70;;;;;;;;;;4997912;28;20132;-63
2021/08/21 10:21:25;;;;;;;6.50;3.88;;;;;;;;;;4994856;28;20054;-63
2021/08/21 10:23:53;;;;;;;6.40;4.13;;;;;;;;;;5003350;28;20474;-62
2021/08/21 10:26:25;;;;;;;4.93;3.22;;;;;;;;;;5007674;28;20049;-63
2021/08/21 10:28:54;;;;;;;6.60;3.50;;;;;;;;;;5006458;28;20072;-63
2021/08/21 10:31:35;;;;;;;6.38;3.58;;;;;;;;;;5001338;28;20049;-63
2021/08/21 10:34:05;;;;;;;4.13;3.20;;;;;;;;;;5003276;28;20050;-63
2021/08/21 10:36:40;;;;;;;6.07;3.58;;;;;;;;;;4995986;28;20049;-63
2021/08/21 10:39:15;;;;;;;6.50;3.60;;;;;;;;;;4996376;28;20054;-63
2021/08/21 10:41:44;;;;;;;5.90;3.28;;;;;;;;;;5007179;28;20108;-63
2021/08/21 10:44:12;;;;;;;5.32;3.45;;;;;;;;;;5006097;28;20086;-63
2021/08/21 10:46:53;;;;;;;5.90;3.60;;;;;;;;;;5006251;28;20041;-63
2021/08/21 10:49:40;;;;;;;5.57;3.45;;;;;;;;;;5005156;28;20077;-63
2021/08/21 10:52:29;;;;;;;8.60;3.65;;;;;;;;;;5006042;28;20050;-63
2021/08/21 10:54:58;;;;;;;5.70;3.47;;;;;;;;;;5006938;28;20794;-64
2021/08/21 10:57:27;;;;;;;4.05;2.75;;;;;;;;;;5004826;28;20046;-63
2021/08/21 10:59:55;;;;;;;4.32;2.95;;;;;;;;;;5003152;28;20050;-63
2021/08/21 11:02:42;;;;;;;4.70;3.30;;;;;;;;;;5001525;28;20064;-63
2021/08/21 11:05:25;;;;;;;4.30;2.95;;;;;;;;;;5003752;28;20046;-63
2021/08/21 11:08:02;;;;;;;4.07;2.83;;;;;;;;;;5002510;28;20050;-63
2021/08/21 11:10:31;;;;;;;4.78;3.10;;;;;;;;;;4992238;28;20073;-62
2021/08/21 11:12:59;;;;;;;5.40;3.17;;;;;;;;;;5000645;28;20132;-63
2021/08/21 11:15:31;;;;;;;4.53;2.80;;;;;;;;;;5007322;28;20144;-63
2021/08/21 11:18:00;;;;;;;4.43;3.08;;;;;;;;;;4999507;28;20042;-63
2021/08/21 11:20:30;;;;;;;3.65;2.85;;;;;;;;;;5002731;28;20082;-63
2021/08/21 11:23:17;;;;;;;5.18;3.45;;;;;;;;;;5006148;28;20486;-63
2021/08/21 11:25:46;;;;;;;3.90;2.67;;;;;;;;;;5007259;28;20042;-64
2021/08/21 11:28:21;;;;;;;5.97;2.75;;;;;;;;;;5004846;28;20042;-64
2021/08/21 11:31:08;;;;;;;6.00;3.10;;;;;;;;;;4994536;28;20406;-64
2021/08/21 11:33:38;;;;;;;4.55;3.15;;;;;;;;;;5002706;28;20326;-64
2021/08/21 11:36:07;;;;;;;5.45;3.20;;;;;;;;;;5005397;28;20060;-63
2021/08/21 11:38:36;;;;;;;3.97;2.80;;;;;;;;;;5006018;28;20042;-63
2021/08/21 11:41:11;;;;;;;4.93;3.25;;;;;;;;;;5004903;28;20046;-63
2021/08/21 11:43:41;;;;;;;4.25;2.92;;;;;;;;;;5007661;28;20129;-64
2021/08/21 11:46:14;;;;;;;4.03;3.08;;;;;;;;;;5006445;28;20064;-63
2021/08/21 11:48:42;;;;;;;5.43;3.03;;;;;;;;;;5005369;28;20180;-63
2021/08/21 11:51:11;;;;;;;5.13;3.38;;;;;;;;;;5010396;28;20160;-73
2021/08/21 11:53:44;;;;;;;4.50;2.85;;;;;;;;;;5005192;28;20049;-72
2021/08/21 11:56:15;;;;;;;4.00;2.88;;;;;;;;;;4999829;28;20052;-72
2021/08/21 11:58:46;;;;;;;4.63;3.00;;;;;;;;;;5000984;28;20101;-72
2021/08/21 12:01:21;;;;;;;5.00;3.35;;;;;;;;;;4993104;28;20046;-72
2021/08/21 12:06:37;;;;;;;5.03;3.15;;;;;;;;;;4994196;28;20498;-72
2021/08/21 12:09:09;;;;;;;4.53;2.63;;;;;;;;;;5004407;28;20050;-72
2021/08/21 12:11:39;;;;;;;4.20;3.08;;;;;;;;;;5008727;28;20049;-72
2021/08/21 12:14:07;;;;;;;5.00;2.92;;;;;;;;;;5012041;28;20113;-72
2021/08/21 12:16:36;;;;;;;4.72;3.10;;;;;;;;;;5010081;28;20048;-72
2021/08/21 12:19:05;;;;;;;3.60;2.72;;;;;;;;;;5006624;28;20060;-72
2021/08/21 12:21:34;;;;;;;3.80;2.90;;;;;;;;;;5004269;28;20126;-72
2021/08/21 12:24:02;;;;;;;7.57;3.30;;;;;;;;;;5000714;28;20520;-74
2021/08/21 12:26:34;;;;;;;5.35;3.30;;;;;;;;;;5002002;28;20136;-72
2021/08/21 12:29:04;;;;;;;4.47;3.05;;;;;;;;;;5001147;28;20058;-72
2021/08/21 12:31:36;;;;;;;4.03;2.97;;;;;;;;;;4998796;28;20057;-72
2021/08/21 12:34:05;;;;;;;3.90;2.67;;;;;;;;;;4997787;28;20047;-72
2021/08/21 12:36:41;;;;;;;4.85;3.10;;;;;;;;;;4993893;28;20489;-72
2021/08/21 12:39:10;;;;;;;5.10;3.00;;;;;;;;;;5005852;28;20534;-72
2021/08/21 12:41:48;;;;;;;4.40;2.92;;;;;;;;;;5008927;28;20462;-72
2021/08/21 12:44:18;;;;;;;4.93;2.95;;;;;;;;;;4998527;28;20505;-72
2021/08/21 12:46:54;;;;;;;4.45;2.78;;;;;;;;;;5007014;28;20050;-72
2021/08/21 12:49:29;;;;;;;3.85;2.65;;;;;;;;;;5002639;28;20542;-72
2021/08/21 12:51:58;;;;;;;5.25;3.53;;;;;;;;;;4993933;28;20155;-72
2021/08/21 12:54:30;;;;;;;4.50;2.85;;;;;;;;;;4993598;28;20129;-72
2021/08/21 12:57:05;;;;;;;4.45;3.10;;;;;;;;;;5000212;28;20052;-73
2021/08/21 12:59:35;;;;;;;3.60;2.67;;;;;;;;;;4998107;28;20064;-72
2021/08/21 13:02:04;;;;;;;4.10;2.83;;;;;;;;;;5006057;28;20588;-72
2021/08/21 13:04:33;;;;;;;5.72;3.30;;;;;;;;;;4995824;28;20503;-72
2021/08/21 13:07:01;;;;;;;4.95;3.38;;;;;;;;;;4996429;28;20490;-73
2021/08/21 13:09:30;;;;;;;7.63;3.30;;;;;;;;;;5004466;28;20066;-73
2021/08/21 13:11:59;;;;;;;3.70;2.65;;;;;;;;;;5004316;28;20061;-69
2021/08/21 13:14:27;;;;;;;4.18;3.05;;;;;;;;;;5002186;28;20145;-68
2021/08/21 13:16:57;;;;;;;5.53;3.13;;;;;;;;;;5007588;28;20696;-69
2021/08/21 13:19:25;;;;;;;4.03;3.08;;;;;;;;;;5007826;28;20508;-68
2021/08/21 13:21:54;;;;;;;4.43;3.03;;;;;;;;;;5005264;28;20133;-69
2021/08/21 13:24:23;;;;;;;4.40;3.15;;;;;;;;;;5000198;28;20129;-68
2021/08/21 13:26:51;;;;;;;4.60;2.90;;;;;;;;;;5007167;28;20127;-68
2021/08/21 13:29:19;;;;;;;4.13;2.90;;;;;;;;;;4994954;28;20046;-68
2021/08/21 13:31:48;;;;;;;3.88;2.88;;;;;;;;;;4996015;28;20768;-68
2021/08/21 13:34:17;;;;;;;4.65;3.10;;;;;;;;;;4993845;28;20054;-69
2021/08/21 13:36:47;;;;;;;5.55;3.20;;;;;;;;;;5001423;28;20413;-68
2021/08/21 13:39:15;;;;;;;4.93;3.00;;;;;;;;;;5004275;28;20577;-69
2021/08/21 13:41:43;;;;;;;5.22;3.40;;;;;;;;;;5009606;28;20060;-68
2021/08/21 13:44:12;;;;;;;5.30;2.92;;;;;;;;;;5008961;28;20052;-68
2021/08/21 13:46:40;;;;;;;4.78;2.85;;;;;;;;;;5010630;28;20127;-69
2021/08/21 13:49:08;;;;;;;6.40;3.40;;;;;;;;;;5011234;28;20152;-69
2021/08/21 13:51:39;;;;;;;5.50;2.85;;;;;;;;;;5009415;28;20048;-68
2021/08/21 13:54:07;;;;;;;4.15;2.90;;;;;;;;;;5010253;28;20062;-69
2021/08/21 13:56:36;;;;;;;4.18;2.90;;;;;;;;;;5002228;28;20144;-68
2021/08/21 13:59:04;;;;;;;5.88;3.33;;;;;;;;;;5008932;28;20041;-68
2021/08/21 14:01:33;;;;;;;4.88;3.10;;;;;;;;;;5008169;28;20861;-68
2021/08/21 14:04:01;;;;;;;4.70;2.88;;;;;;;;;;5004390;28;20502;-68
2021/08/21 14:06:29;;;;;;;4.97;3.10;;;;;;;;;;5005052;28;20052;-68
2021/08/21 14:09:02;;;;;;;4.47;2.97;;;;;;;;;;5005944;28;20088;-68
2021/08/21 14:11:30;;;;;;;6.30;3.35;;;;;;;;;;5004560;28;20389;-68
2021/08/21 14:14:03;;;;;;;4.18;3.05;;;;;;;;;;5005396;28;20042;-68
2021/08/21 14:16:31;;;;;;;4.13;2.83;;;;;;;;;;5005474;28;20053;-68
2021/08/21 14:18:59;;;;;;;4.32;3.05;;;;;;;;;;5006044;28;20068;-68
2021/08/21 14:21:28;;;;;;;4.43;3.08;;;;;;;;;;5007348;28;20064;-68
2021/08/21 14:23:56;;;;;;;3.90;2.90;;;;;;;;;;5006060;28;20054;-68
2021/08/21 14:26:25;;;;;;;4.72;3.08;;;;;;;;;;5005771;28;20433;-68
2021/08/21 14:28:54;;;;;;;4.90;3.13;;;;;;;;;;5006368;28;20068;-68
2021/08/21 14:31:23;;;;;;;4.65;3.10;;;;;;;;;;4991855;28;20064;-68
2021/08/21 14:33:51;;;;;;;4.95;2.80;;;;;;;;;;4999236;28;20060;-68
2021/08/21 14:36:20;;;;;;;4.43;3.10;;;;;;;;;;4995921;28;20547;-68
2021/08/21 14:38:48;;;;;;;5.78;3.17;;;;;;;;;;5004353;28;20452;-68
2021/08/21 14:41:17;;;;;;;4.68;3.15;;;;;;;;;;5004135;28;20054;-68
2021/08/21 14:43:48;;;;;;;3.95;2.78;;;;;;;;;;5001943;28;20129;-68
2021/08/21 14:46:16;;;;;;;4.07;2.78;;;;;;;;;;5001888;28;20057;-68
2021/08/21 14:48:44;;;;;;;5.43;2.53;;;;;;;;;;5000254;28;20042;-68
2021/08/21 14:51:12;;;;;;;4.68;2.70;;;;;;;;;;5001825;28;20049;-68
2021/08/21 14:53:44;;;;;;;5.70;3.30;;;;;;;;;;4993427;28;20430;-68
2021/08/21 14:56:12;;;;;;;3.53;2.92;;;;;;;;;;5000610;28;20502;-68
2021/08/21 14:58:41;;;;;;;4.05;2.90;;;;;;;;;;5004256;28;20071;-68